sensor_id;sensor_type;location;lat;lon;timestamp;pressure;altitude;pressure_sealevel;temperature;humidity
48926;BME280;39838;59.938;30.642;2024-03-02T00:00:38;101930.53;;;2.06;83.89
48926;BME280;39838;59.938;30.642;2024-03-02T00:03:07;101929.75;;;2.07;83.64
48926;BME280;39838;59.938;30.642;2024-03-02T00:05:36;101929.22;;;2.13;83.73
48926;BME280;39838;59.938;30.642;2024-03-02T00:08:07;101925.56;;;2.09;83.46
48926;BME280;39838;59.938;30.642;2024-03-02T00:10:37;101911.78;;;2.07;83.44
48926;BME280;39838;59.938;30.642;2024-03-02T00:13:06;101915.88;;;2.04;83.49
48926;BME280;39838;59.938;30.642;2024-03-02T00:15:40;101905.44;;;1.86;83.33
48926;BME280;39838;59.938;30.642;2024-03-02T00:18:08;101914.09;;;1.88;83.55
48926;BME280;39838;59.938;30.642;2024-03-02T00:20:37;101915.34;;;1.80;83.88
48926;BME280;39838;59.938;30.642;2024-03-02T00:23:07;101918.72;;;1.79;84.18
48926;BME280;39838;59.938;30.642;2024-03-02T00:25:39;101911.47;;;1.72;84.27
48926;BME280;39838;59.938;30.642;2024-03-02T00:28:18;101922.31;;;1.68;84.68
48926;BME280;39838;59.938;30.642;2024-03-02T00:30:57;101916.03;;;1.62;84.48
48926;BME280;39838;59.938;30.642;2024-03-02T00:33:27;101911.72;;;1.61;85.17
48926;BME280;39838;59.938;30.642;2024-03-02T00:35:55;101914.47;;;1.64;85.15
48926;BME280;39838;59.938;30.642;2024-03-02T00:38:24;101910.81;;;1.61;85.33
48926;BME280;39838;59.938;30.642;2024-03-02T00:40:52;101904.56;;;1.56;85.44
48926;BME280;39838;59.938;30.642;2024-03-02T00:43:45;101913.75;;;1.52;85.82
48926;BME280;39838;59.938;30.642;2024-03-02T00:46:16;101913.75;;;1.52;86.08
48926;BME280;39838;59.938;30.642;2024-03-02T00:48:48;101906.06;;;1.52;85.62
48926;BME280;39838;59.938;30.642;2024-03-02T00:51:17;101909.69;;;1.56;85.92
48926;BME280;39838;59.938;30.642;2024-03-02T00:53:46;101916.66;;;1.58;85.82
48926;BME280;39838;59.938;30.642;2024-03-02T00:56:13;101910.75;;;1.59;85.79
48926;BME280;39838;59.938;30.642;2024-03-02T00:58:41;101912.50;;;1.60;85.60
48926;BME280;39838;59.938;30.642;2024-03-02T01:01:08;101907.38;;;1.60;85.83
48926;BME280;39838;59.938;30.642;2024-03-02T01:03:35;101913.31;;;1.59;86.19
48926;BME280;39838;59.938;30.642;2024-03-02T01:06:04;101908.09;;;1.58;85.87
48926;BME280;39838;59.938;30.642;2024-03-02T01:08:33;101911.72;;;1.61;86.12
48926;BME280;39838;59.938;30.642;2024-03-02T01:11:02;101906.50;;;1.60;85.80
48926;BME280;39838;59.938;30.642;2024-03-02T01:13:30;101904.81;;;1.60;86.00
48926;BME280;39838;59.938;30.642;2024-03-02T01:15:57;101908.47;;;1.64;86.04
48926;BME280;39838;59.938;30.642;2024-03-02T01:18:25;101909.59;;;1.69;85.92
48926;BME280;39838;59.938;30.642;2024-03-02T01:20:53;101906.50;;;1.75;85.96
48926;BME280;39838;59.938;30.642;2024-03-02T01:23:22;101907.56;;;1.78;85.81
48926;BME280;39838;59.938;30.642;2024-03-02T01:25:50;101923.47;;;1.87;85.26
48926;BME280;39838;59.938;30.642;2024-03-02T01:28:19;101911.63;;;1.89;85.30
48926;BME280;39838;59.938;30.642;2024-03-02T01:30:47;101912.09;;;1.97;85.27
48926;BME280;39838;59.938;30.642;2024-03-02T01:33:14;101915.16;;;2.06;85.10
48926;BME280;39838;59.938;30.642;2024-03-02T01:35:41;101913.41;;;2.05;84.83
48926;BME280;39838;59.938;30.642;2024-03-02T01:38:09;101914.00;;;2.01;84.75
48926;BME280;39838;59.938;30.642;2024-03-02T01:40:37;101909.59;;;1.99;85.01
48926;BME280;39838;59.938;30.642;2024-03-02T01:43:05;101916.41;;;1.98;85.05
48926;BME280;39838;59.938;30.642;2024-03-02T01:45:34;101913.84;;;1.98;85.01
48926;BME280;39838;59.938;30.642;2024-03-02T01:48:04;101923.81;;;2.08;85.20
48926;BME280;39838;59.938;30.642;2024-03-02T01:50:32;101921.16;;;2.22;84.94
48926;BME280;39838;59.938;30.642;2024-03-02T01:53:00;101916.09;;;2.38;84.63
48926;BME280;39838;59.938;30.642;2024-03-02T01:55:28;101914.28;;;2.52;83.81
48926;BME280;39838;59.938;30.642;2024-03-02T01:57:56;101914.84;;;2.62;84.05
48926;BME280;39838;59.938;30.642;2024-03-02T02:00:23;101908.63;;;2.73;83.18
48926;BME280;39838;59.938;30.642;2024-03-02T02:02:53;101901.25;;;2.80;82.93
48926;BME280;39838;59.938;30.642;2024-03-02T02:05:21;101910.97;;;2.85;82.57
48926;BME280;39838;59.938;30.642;2024-03-02T02:07:48;101905.84;;;2.85;82.22
48926;BME280;39838;59.938;30.642;2024-03-02T02:10:15;101907.69;;;2.88;82.09
48926;BME280;39838;59.938;30.642;2024-03-02T02:12:45;101909.44;;;2.89;81.93
48926;BME280;39838;59.938;30.642;2024-03-02T02:15:23;101907.94;;;2.92;81.32
48926;BME280;39838;59.938;30.642;2024-03-02T02:17:52;101913.41;;;2.98;81.82
48926;BME280;39838;59.938;30.642;2024-03-02T02:20:39;101910.03;;;2.99;81.31
48926;BME280;39838;59.938;30.642;2024-03-02T02:23:08;101910.09;;;3.01;81.08
48926;BME280;39838;59.938;30.642;2024-03-02T02:25:35;101916.19;;;3.03;81.11
48926;BME280;39838;59.938;30.642;2024-03-02T02:28:03;101908.97;;;2.96;80.82
48926;BME280;39838;59.938;30.642;2024-03-02T02:30:31;101919.38;;;2.83;81.50
48926;BME280;39838;59.938;30.642;2024-03-02T02:32:59;101919.22;;;2.80;81.65
48926;BME280;39838;59.938;30.642;2024-03-02T02:35:26;101909.78;;;2.79;81.29
48926;BME280;39838;59.938;30.642;2024-03-02T02:37:54;101907.03;;;2.76;81.93
48926;BME280;39838;59.938;30.642;2024-03-02T02:40:23;101918.25;;;2.78;81.79
48926;BME280;39838;59.938;30.642;2024-03-02T02:42:50;101908.88;;;2.78;81.92
48926;BME280;39838;59.938;30.642;2024-03-02T02:45:18;101919.03;;;2.77;81.81
48926;BME280;39838;59.938;30.642;2024-03-02T02:47:45;101917.50;;;2.64;82.17
48926;BME280;39838;59.938;30.642;2024-03-02T02:50:13;101920.53;;;2.57;82.23
48926;BME280;39838;59.938;30.642;2024-03-02T02:52:41;101921.41;;;2.57;82.48
48926;BME280;39838;59.938;30.642;2024-03-02T02:55:10;101925.50;;;2.54;82.72
48926;BME280;39838;59.938;30.642;2024-03-02T02:57:40;101925.00;;;2.44;83.09
48926;BME280;39838;59.938;30.642;2024-03-02T03:00:09;101928.81;;;2.36;83.31
48926;BME280;39838;59.938;30.642;2024-03-02T03:02:40;101919.34;;;2.35;83.36
48926;BME280;39838;59.938;30.642;2024-03-02T03:05:08;101930.50;;;2.36;83.51
48926;BME280;39838;59.938;30.642;2024-03-02T03:07:36;101925.19;;;2.33;83.80
48926;BME280;39838;59.938;30.642;2024-03-02T03:10:07;101924.06;;;2.28;83.73
48926;BME280;39838;59.938;30.642;2024-03-02T03:12:34;101921.50;;;2.28;83.84
48926;BME280;39838;59.938;30.642;2024-03-02T03:15:04;101916.22;;;2.25;83.81
48926;BME280;39838;59.938;30.642;2024-03-02T03:17:32;101920.59;;;2.27;84.08
48926;BME280;39838;59.938;30.642;2024-03-02T03:20:00;101914.13;;;2.34;84.12
48926;BME280;39838;59.938;30.642;2024-03-02T03:22:29;101912.06;;;2.43;84.02
48926;BME280;39838;59.938;30.642;2024-03-02T03:24:57;101918.63;;;2.53;83.68
48926;BME280;39838;59.938;30.642;2024-03-02T03:27:25;101918.75;;;2.56;83.35
48926;BME280;39838;59.938;30.642;2024-03-02T03:29:52;101920.72;;;2.60;83.23
48926;BME280;39838;59.938;30.642;2024-03-02T03:32:21;101928.41;;;2.60;83.36
48926;BME280;39838;59.938;30.642;2024-03-02T03:34:48;101920.28;;;2.52;83.05
48926;BME280;39838;59.938;30.642;2024-03-02T03:37:15;101923.31;;;2.45;83.37
48926;BME280;39838;59.938;30.642;2024-03-02T03:39:43;101920.22;;;2.36;83.62
48926;BME280;39838;59.938;30.642;2024-03-02T03:42:10;101920.06;;;2.33;84.06
48926;BME280;39838;59.938;30.642;2024-03-02T03:44:37;101920.59;;;2.27;84.14
48926;BME280;39838;59.938;30.642;2024-03-02T03:47:05;101916.22;;;2.25;84.31
48926;BME280;39838;59.938;30.642;2024-03-02T03:49:34;101920.25;;;2.21;84.56
48926;BME280;39838;59.938;30.642;2024-03-02T03:52:01;101914.25;;;2.21;84.90
48926;BME280;39838;59.938;30.642;2024-03-02T03:54:28;101917.69;;;2.21;84.66
48926;BME280;39838;59.938;30.642;2024-03-02T03:56:55;101913.88;;;2.29;84.80
48926;BME280;39838;59.938;30.642;2024-03-02T03:59:23;101906.94;;;2.43;84.57
48926;BME280;39838;59.938;30.642;2024-03-02T04:01:50;101913.56;;;2.54;84.21
48926;BME280;39838;59.938;30.642;2024-03-02T04:04:18;101916.13;;;2.54;83.89
48926;BME280;39838;59.938;30.642;2024-03-02T04:06:47;101913.13;;;2.46;83.83
48926;BME280;39838;59.938;30.642;2024-03-02T04:09:14;101903.06;;;2.35;84.04
48926;BME280;39838;59.938;30.642;2024-03-02T04:11:41;101907.50;;;2.37;84.20
48926;BME280;39838;59.938;30.642;2024-03-02T04:14:08;101904.69;;;2.33;84.35
48926;BME280;39838;59.938;30.642;2024-03-02T04:16:35;101899.28;;;2.28;84.58
48926;BME280;39838;59.938;30.642;2024-03-02T04:19:03;101902.66;;;2.27;84.74
48926;BME280;39838;59.938;30.642;2024-03-02T04:21:31;101900.97;;;2.28;84.89
48926;BME280;39838;59.938;30.642;2024-03-02T04:24:00;101899.38;;;2.30;84.98
48926;BME280;39838;59.938;30.642;2024-03-02T04:26:27;101902.72;;;2.29;84.89
48926;BME280;39838;59.938;30.642;2024-03-02T04:28:54;101900.91;;;2.26;85.01
48926;BME280;39838;59.938;30.642;2024-03-02T04:31:21;101908.66;;;2.28;84.83
48926;BME280;39838;59.938;30.642;2024-03-02T04:33:49;101911.06;;;2.25;85.14
48926;BME280;39838;59.938;30.642;2024-03-02T04:36:16;101903.47;;;2.26;85.23
48926;BME280;39838;59.938;30.642;2024-03-02T04:38:43;101915.31;;;2.24;85.12
48926;BME280;39838;59.938;30.642;2024-03-02T04:41:11;101916.00;;;2.22;85.02
48926;BME280;39838;59.938;30.642;2024-03-02T04:43:39;101925.38;;;2.21;85.42
48926;BME280;39838;59.938;30.642;2024-03-02T04:46:06;101920.25;;;2.21;85.39
48926;BME280;39838;59.938;30.642;2024-03-02T04:48:34;101915.13;;;2.21;85.31
48926;BME280;39838;59.938;30.642;2024-03-02T04:51:01;101913.38;;;2.20;85.41
48926;BME280;39838;59.938;30.642;2024-03-02T04:53:28;101919.38;;;2.21;85.50
48926;BME280;39838;59.938;30.642;2024-03-02T04:55:55;101910.81;;;2.20;85.65
48926;BME280;39838;59.938;30.642;2024-03-02T04:58:47;101919.38;;;2.21;85.43
48926;BME280;39838;59.938;30.642;2024-03-02T05:01:14;101914.44;;;2.24;85.83
48926;BME280;39838;59.938;30.642;2024-03-02T05:03:43;101917.09;;;2.25;85.59
48926;BME280;39838;59.938;30.642;2024-03-02T05:06:11;101907.44;;;2.21;85.78
48926;BME280;39838;59.938;30.642;2024-03-02T05:08:38;101922.13;;;2.24;85.58
48926;BME280;39838;59.938;30.642;2024-03-02T05:11:05;101921.75;;;2.32;85.78
48926;BME280;39838;59.938;30.642;2024-03-02T05:13:51;101918.47;;;2.35;85.38
48926;BME280;39838;59.938;30.642;2024-03-02T05:16:19;101909.97;;;2.36;85.38
48926;BME280;39838;59.938;30.642;2024-03-02T05:18:46;101915.09;;;2.36;85.42
48926;BME280;39838;59.938;30.642;2024-03-02T05:21:13;101911.56;;;2.34;85.39
48926;BME280;39838;59.938;30.642;2024-03-02T05:23:41;101908.75;;;2.29;85.47
48926;BME280;39838;59.938;30.642;2024-03-02T05:26:08;101913.00;;;2.29;85.42
48926;BME280;39838;59.938;30.642;2024-03-02T05:28:36;101922.63;;;2.33;85.42
48926;BME280;39838;59.938;30.642;2024-03-02T05:31:05;101927.84;;;2.34;85.48
48926;BME280;39838;59.938;30.642;2024-03-02T05:33:32;101926.25;;;2.36;85.59
48926;BME280;39838;59.938;30.642;2024-03-02T05:35:59;101922.91;;;2.37;85.44
48926;BME280;39838;59.938;30.642;2024-03-02T05:38:27;101923.78;;;2.38;85.69
48926;BME280;39838;59.938;30.642;2024-03-02T05:40:54;101921.28;;;2.39;85.60
48926;BME280;39838;59.938;30.642;2024-03-02T05:43:22;101919.69;;;2.41;85.29
48926;BME280;39838;59.938;30.642;2024-03-02T05:45:48;101915.53;;;2.43;85.46
48926;BME280;39838;59.938;30.642;2024-03-02T05:48:16;101927.72;;;2.47;85.35
48926;BME280;39838;59.938;30.642;2024-03-02T05:50:43;101924.38;;;2.49;85.33
48926;BME280;39838;59.938;30.642;2024-03-02T05:53:11;101926.94;;;2.49;85.28
48926;BME280;39838;59.938;30.642;2024-03-02T05:55:38;101930.38;;;2.49;85.12
48926;BME280;39838;59.938;30.642;2024-03-02T05:58:05;101933.13;;;2.52;85.24
48926;BME280;39838;59.938;30.642;2024-03-02T06:00:48;101925.44;;;2.52;85.15
48926;BME280;39838;59.938;30.642;2024-03-02T06:03:17;101930.03;;;2.58;84.94
48926;BME280;39838;59.938;30.642;2024-03-02T06:05:44;101926.53;;;2.57;84.92
48926;BME280;39838;59.938;30.642;2024-03-02T06:08:11;101907.13;;;2.46;84.89
48926;BME280;39838;59.938;30.642;2024-03-02T06:10:38;101930.03;;;2.58;84.89
48926;BME280;39838;59.938;30.642;2024-03-02T06:13:05;101933.47;;;2.58;84.86
48926;BME280;39838;59.938;30.642;2024-03-02T06:15:33;101931.78;;;2.59;84.85
48926;BME280;39838;59.938;30.642;2024-03-02T06:18:01;101930.97;;;2.60;84.96
48926;BME280;39838;59.938;30.642;2024-03-02T06:20:30;101927.59;;;2.61;84.76
48926;BME280;39838;59.938;30.642;2024-03-02T06:22:57;101924.97;;;2.59;84.46
48926;BME280;39838;59.938;30.642;2024-03-02T06:25:24;101932.75;;;2.61;84.85
48926;BME280;39838;59.938;30.642;2024-03-02T06:27:52;101931.06;;;2.61;84.91
48926;BME280;39838;59.938;30.642;2024-03-02T06:30:19;101935.47;;;2.64;84.80
48926;BME280;39838;59.938;30.642;2024-03-02T06:32:46;101929.56;;;2.65;84.66
48926;BME280;39838;59.938;30.642;2024-03-02T06:35:13;101928.69;;;2.64;84.48
48926;BME280;39838;59.938;30.642;2024-03-02T06:37:42;101923.53;;;2.64;84.59
48926;BME280;39838;59.938;30.642;2024-03-02T06:40:10;101922.63;;;2.64;84.44
48926;BME280;39838;59.938;30.642;2024-03-02T06:42:37;101916.53;;;2.62;84.64
48926;BME280;39838;59.938;30.642;2024-03-02T06:45:05;101914.06;;;2.63;84.59
48926;BME280;39838;59.938;30.642;2024-03-02T06:47:33;101922.56;;;2.62;84.57
48926;BME280;39838;59.938;30.642;2024-03-02T06:50:00;101916.63;;;2.63;84.43
48926;BME280;39838;59.938;30.642;2024-03-02T06:52:30;101925.13;;;2.62;84.61
48926;BME280;39838;59.938;30.642;2024-03-02T06:54:58;101925.13;;;2.62;84.39
48926;BME280;39838;59.938;30.642;2024-03-02T06:57:26;101917.50;;;2.64;84.84
48926;BME280;39838;59.938;30.642;2024-03-02T06:59:53;101924.50;;;2.66;84.72
48926;BME280;39838;59.938;30.642;2024-03-02T07:02:24;101931.41;;;2.67;84.60
48926;BME280;39838;59.938;30.642;2024-03-02T07:04:52;101939.25;;;2.70;84.56
48926;BME280;39838;59.938;30.642;2024-03-02T07:07:19;101939.25;;;2.70;84.49
48926;BME280;39838;59.938;30.642;2024-03-02T07:09:47;101937.25;;;2.65;84.35
48926;BME280;39838;59.938;30.642;2024-03-02T07:12:15;101924.56;;;2.68;84.52
48926;BME280;39838;59.938;30.642;2024-03-02T07:14:43;101933.16;;;2.68;84.31
48926;BME280;39838;59.938;30.642;2024-03-02T07:17:37;101930.59;;;2.68;84.70
48926;BME280;39838;59.938;30.642;2024-03-02T07:20:05;101930.84;;;2.73;84.38
48926;BME280;39838;59.938;30.642;2024-03-02T07:22:33;101935.31;;;2.77;84.45
48926;BME280;39838;59.938;30.642;2024-03-02T07:25:00;101933.81;;;2.81;84.27
48926;BME280;39838;59.938;30.642;2024-03-02T07:27:30;101934.78;;;2.83;84.55
48926;BME280;39838;59.938;30.642;2024-03-02T07:29:59;101927.97;;;2.83;84.53
48926;BME280;39838;59.938;30.642;2024-03-02T07:32:27;101931.94;;;2.93;83.99
48926;BME280;39838;59.938;30.642;2024-03-02T07:34:54;101935.59;;;2.98;84.12
48926;BME280;39838;59.938;30.642;2024-03-02T07:37:22;101935.78;;;3.01;83.75
48926;BME280;39838;59.938;30.642;2024-03-02T07:39:49;101926.38;;;3.01;83.87
48926;BME280;39838;59.938;30.642;2024-03-02T07:42:16;101929.34;;;3.09;84.07
48926;BME280;39838;59.938;30.642;2024-03-02T07:44:45;101927.19;;;3.17;83.46
48926;BME280;39838;59.938;30.642;2024-03-02T07:47:12;101928.19;;;3.19;83.79
48926;BME280;39838;59.938;30.642;2024-03-02T07:49:40;101930.00;;;3.21;83.66
48926;BME280;39838;59.938;30.642;2024-03-02T07:52:07;101931.69;;;3.21;83.21
48926;BME280;39838;59.938;30.642;2024-03-02T07:54:34;101935.16;;;3.21;83.55
48926;BME280;39838;59.938;30.642;2024-03-02T07:57:02;101930.88;;;3.22;83.04
48926;BME280;39838;59.938;30.642;2024-03-02T07:59:30;101925.59;;;3.19;83.22
48926;BME280;39838;59.938;30.642;2024-03-02T08:01:58;101934.50;;;3.25;83.31
48926;BME280;39838;59.938;30.642;2024-03-02T08:04:26;101927.03;;;3.30;83.06
48926;BME280;39838;59.938;30.642;2024-03-02T08:06:53;101923.91;;;3.36;82.37
48926;BME280;39838;59.938;30.642;2024-03-02T08:09:21;101925.50;;;3.34;82.72
48926;BME280;39838;59.938;30.642;2024-03-02T08:11:48;101925.34;;;3.31;82.67
48926;BME280;39838;59.938;30.642;2024-03-02T08:14:15;101919.66;;;3.20;83.06
48926;BME280;39838;59.938;30.642;2024-03-02T08:16:43;101923.09;;;3.20;82.98
48926;BME280;39838;59.938;30.642;2024-03-02T08:19:11;101922.38;;;3.23;83.19
48926;BME280;39838;59.938;30.642;2024-03-02T08:21:38;101929.38;;;3.25;82.70
48926;BME280;39838;59.938;30.642;2024-03-02T08:24:07;101925.81;;;3.23;82.69
48926;BME280;39838;59.938;30.642;2024-03-02T08:26:34;101929.59;;;3.14;82.77
48926;BME280;39838;59.938;30.642;2024-03-02T08:29:02;101928.88;;;3.16;82.53
48926;BME280;39838;59.938;30.642;2024-03-02T08:31:29;101934.97;;;3.18;82.91
48926;BME280;39838;59.938;30.642;2024-03-02T08:33:56;101929.75;;;3.17;83.10
48926;BME280;39838;59.938;30.642;2024-03-02T08:36:26;101932.31;;;3.17;83.04
48926;BME280;39838;59.938;30.642;2024-03-02T08:38:53;101935.78;;;3.17;83.02
48926;BME280;39838;59.938;30.642;2024-03-02T08:41:20;101938.59;;;3.22;82.98
48926;BME280;39838;59.938;30.642;2024-03-02T08:43:48;101937.38;;;3.32;82.57
48926;BME280;39838;59.938;30.642;2024-03-02T08:46:15;101938.66;;;3.23;82.38
48926;BME280;39838;59.938;30.642;2024-03-02T08:48:42;101936.09;;;3.23;82.15
48926;BME280;39838;59.938;30.642;2024-03-02T08:51:10;101928.00;;;3.16;82.59
48926;BME280;39838;59.938;30.642;2024-03-02T08:53:39;101928.88;;;3.16;82.90
48926;BME280;39838;59.938;30.642;2024-03-02T08:56:06;101937.09;;;3.25;82.90
48926;BME280;39838;59.938;30.642;2024-03-02T08:58:33;101938.19;;;3.31;82.45
48926;BME280;39838;59.938;30.642;2024-03-02T09:01:00;101938.09;;;3.29;82.83
48926;BME280;39838;59.938;30.642;2024-03-02T09:03:28;101932.81;;;3.26;82.72
48926;BME280;39838;59.938;30.642;2024-03-02T09:05:58;101943.56;;;3.35;82.89
48926;BME280;39838;59.938;30.642;2024-03-02T09:08:25;101923.09;;;3.37;82.20
48926;BME280;39838;59.938;30.642;2024-03-02T09:10:54;101936.50;;;3.31;82.71
48926;BME280;39838;59.938;30.642;2024-03-02T09:13:22;101944.53;;;3.37;82.58
48926;BME280;39838;59.938;30.642;2024-03-02T09:15:49;101950.06;;;3.45;82.38
48926;BME280;39838;59.938;30.642;2024-03-02T09:18:16;101942.53;;;3.48;82.59
48926;BME280;39838;59.938;30.642;2024-03-02T09:20:43;101946.28;;;3.54;81.93
48926;BME280;39838;59.938;30.642;2024-03-02T09:23:11;101946.22;;;3.53;81.91
48926;BME280;39838;59.938;30.642;2024-03-02T09:25:39;101940.91;;;3.50;81.56
48926;BME280;39838;59.938;30.642;2024-03-02T09:28:08;101939.22;;;3.50;81.98
48926;BME280;39838;59.938;30.642;2024-03-02T09:30:35;101933.19;;;3.50;81.94
48926;BME280;39838;59.938;30.642;2024-03-02T09:33:03;101937.22;;;3.61;82.31
48926;BME280;39838;59.938;30.642;2024-03-02T09:35:30;101938.47;;;3.69;82.12
48926;BME280;39838;59.938;30.642;2024-03-02T09:37:57;101942.31;;;3.77;82.06
48926;BME280;39838;59.938;30.642;2024-03-02T09:40:25;101938.22;;;3.81;81.80
48926;BME280;39838;59.938;30.642;2024-03-02T09:42:52;101931.81;;;3.91;81.55
48926;BME280;39838;59.938;30.642;2024-03-02T09:45:23;101929.56;;;3.97;81.27
48926;BME280;39838;59.938;30.642;2024-03-02T09:47:52;101919.66;;;4.04;79.98
48926;BME280;39838;59.938;30.642;2024-03-02T09:50:19;101932.56;;;4.06;79.97
48926;BME280;39838;59.938;30.642;2024-03-02T09:52:48;101933.69;;;4.11;80.24
48926;BME280;39838;59.938;30.642;2024-03-02T09:55:16;101926.03;;;4.13;79.72
48926;BME280;39838;59.938;30.642;2024-03-02T09:57:45;101938.25;;;4.17;79.67
48926;BME280;39838;59.938;30.642;2024-03-02T10:00:15;101938.50;;;4.21;79.99
48926;BME280;39838;59.938;30.642;2024-03-02T10:02:44;101923.94;;;4.22;79.06
48926;BME280;39838;59.938;30.642;2024-03-02T10:05:23;101934.81;;;4.16;79.33
48926;BME280;39838;59.938;30.642;2024-03-02T10:07:58;101937.31;;;4.15;79.67
48926;BME280;39838;59.938;30.642;2024-03-02T10:10:34;101919.88;;;4.09;79.45
48926;BME280;39838;59.938;30.642;2024-03-02T10:13:06;101933.94;;;4.16;79.52
48926;BME280;39838;59.938;30.642;2024-03-02T10:15:34;101938.50;;;4.21;79.04
48926;BME280;39838;59.938;30.642;2024-03-02T10:18:04;101936.88;;;4.23;78.74
48926;BME280;39838;59.938;30.642;2024-03-02T10:20:32;101942.00;;;4.23;78.69
48926;BME280;39838;59.938;30.642;2024-03-02T10:23:10;101913.19;;;4.13;78.86
48926;BME280;39838;59.938;30.642;2024-03-02T10:25:37;101934.94;;;4.19;78.63
48926;BME280;39838;59.938;30.642;2024-03-02T10:28:05;101935.81;;;4.20;78.19
48926;BME280;39838;59.938;30.642;2024-03-02T10:30:32;101930.09;;;4.25;78.40
48926;BME280;39838;59.938;30.642;2024-03-02T10:33:00;101938.09;;;4.31;77.77
48926;BME280;39838;59.938;30.642;2024-03-02T10:35:29;101937.97;;;4.28;77.46
48926;BME280;39838;59.938;30.642;2024-03-02T10:37:59;101933.72;;;4.29;77.87
48926;BME280;39838;59.938;30.642;2024-03-02T10:40:27;101930.25;;;4.28;78.00
48926;BME280;39838;59.938;30.642;2024-03-02T10:42:54;101932.44;;;4.38;77.33
48926;BME280;39838;59.938;30.642;2024-03-02T10:45:23;101932.81;;;4.46;77.79
48926;BME280;39838;59.938;30.642;2024-03-02T10:47:50;101919.00;;;4.44;77.51
48926;BME280;39838;59.938;30.642;2024-03-02T10:50:17;101920.22;;;4.52;77.22
48926;BME280;39838;59.938;30.642;2024-03-02T10:52:46;101928.31;;;4.60;76.82
48926;BME280;39838;59.938;30.642;2024-03-02T10:55:13;101931.16;;;4.66;75.95
48926;BME280;39838;59.938;30.642;2024-03-02T10:57:42;101915.16;;;4.54;75.55
48926;BME280;39838;59.938;30.642;2024-03-02T11:00:13;101926.91;;;4.66;75.66
48926;BME280;39838;59.938;30.642;2024-03-02T11:02:50;101900.53;;;4.53;75.77
48926;BME280;39838;59.938;30.642;2024-03-02T11:05:26;101917.06;;;4.76;75.51
48926;BME280;39838;59.938;30.642;2024-03-02T11:07:57;101920.44;;;4.75;75.07
48926;BME280;39838;59.938;30.642;2024-03-02T11:10:34;101916.59;;;4.66;74.81
48926;BME280;39838;59.938;30.642;2024-03-02T11:13:03;101927.78;;;4.67;75.20
48926;BME280;39838;59.938;30.642;2024-03-02T11:15:34;101925.97;;;4.64;75.37
48926;BME280;39838;59.938;30.642;2024-03-02T11:18:04;101916.25;;;4.59;75.24
48926;BME280;39838;59.938;30.642;2024-03-02T11:20:36;101930.44;;;4.69;75.63
48926;BME280;39838;59.938;30.642;2024-03-02T11:23:07;101927.28;;;4.74;74.65
48926;BME280;39838;59.938;30.642;2024-03-02T11:25:35;101923.72;;;4.72;75.06
48926;BME280;39838;59.938;30.642;2024-03-02T11:28:05;101927.00;;;4.68;75.10
48926;BME280;39838;59.938;30.642;2024-03-02T11:30:51;101922.91;;;4.73;74.82
48926;BME280;39838;59.938;30.642;2024-03-02T11:33:24;101918.81;;;4.77;74.71
48926;BME280;39838;59.938;30.642;2024-03-02T11:35:55;101921.06;;;4.88;75.03
48926;BME280;39838;59.938;30.642;2024-03-02T11:38:28;101916.44;;;5.01;74.33
48926;BME280;39838;59.938;30.642;2024-03-02T11:40:56;101922.03;;;5.10;73.60
48926;BME280;39838;59.938;30.642;2024-03-02T11:43:23;101921.06;;;5.08;73.96
48926;BME280;39838;59.938;30.642;2024-03-02T11:45:57;101921.88;;;5.07;73.55
48926;BME280;39838;59.938;30.642;2024-03-02T11:48:25;101919.72;;;5.16;73.26
48926;BME280;39838;59.938;30.642;2024-03-02T11:50:52;101913.88;;;5.20;73.68
48926;BME280;39838;59.938;30.642;2024-03-02T11:53:20;101908.66;;;5.18;72.82
48926;BME280;39838;59.938;30.642;2024-03-02T11:55:49;101920.19;;;5.27;72.43
48926;BME280;39838;59.938;30.642;2024-03-02T11:58:17;101924.53;;;5.28;72.18
48926;BME280;39838;59.938;30.642;2024-03-02T12:00:46;101905.81;;;5.12;72.19
48926;BME280;39838;59.938;30.642;2024-03-02T12:03:14;101932.41;;;5.31;71.98
48926;BME280;39838;59.938;30.642;2024-03-02T12:05:42;101935.09;;;5.34;72.14
48926;BME280;39838;59.938;30.642;2024-03-02T12:08:11;101918.75;;;5.33;71.68
48926;BME280;39838;59.938;30.642;2024-03-02T12:10:39;101933.28;;;5.51;71.75
48926;BME280;39838;59.938;30.642;2024-03-02T12:13:08;101925.59;;;5.52;71.13
48926;BME280;39838;59.938;30.642;2024-03-02T12:15:38;101909.66;;;5.41;71.54
48926;BME280;39838;59.938;30.642;2024-03-02T12:18:06;101933.94;;;5.66;71.63
48926;BME280;39838;59.938;30.642;2024-03-02T12:20:34;101933.75;;;5.82;71.37
48926;BME280;39838;59.938;30.642;2024-03-02T12:23:04;101908.78;;;5.81;70.18
48926;BME280;39838;59.938;30.642;2024-03-02T12:25:32;101929.59;;;5.86;69.96
48926;BME280;39838;59.938;30.642;2024-03-02T12:28:01;101907.19;;;5.64;69.41
48926;BME280;39838;59.938;30.642;2024-03-02T12:30:30;101922.16;;;5.52;70.14
48926;BME280;39838;59.938;30.642;2024-03-02T12:32:58;101922.75;;;5.46;70.70
48926;BME280;39838;59.938;30.642;2024-03-02T12:35:25;101932.56;;;5.55;70.20
48926;BME280;39838;59.938;30.642;2024-03-02T12:37:53;101911.84;;;5.52;69.61
48926;BME280;39838;59.938;30.642;2024-03-02T12:40:21;101928.38;;;5.57;69.80
48926;BME280;39838;59.938;30.642;2024-03-02T12:42:49;101925.81;;;5.57;69.21
48926;BME280;39838;59.938;30.642;2024-03-02T12:45:17;101920.94;;;5.43;69.11
48926;BME280;39838;59.938;30.642;2024-03-02T12:47:51;101921.28;;;5.32;69.69
48926;BME280;39838;59.938;30.642;2024-03-02T12:50:19;101919.84;;;5.19;69.52
48926;BME280;39838;59.938;30.642;2024-03-02T12:52:56;101916.81;;;5.08;69.59
48926;BME280;39838;59.938;30.642;2024-03-02T12:55:24;101914.09;;;5.05;69.65
48926;BME280;39838;59.938;30.642;2024-03-02T12:57:52;101913.44;;;5.09;70.19